Hovedside
METAR-TAF:

METAR-TAF

Lufthavner :

Narsarsuaq lufthavn

Narsarsuaq, Grønland

breddegrad: 61-10N, lengdegrad: 045-25W, høyde over havet: 34 m

Gjeldene værobservasjon

Denne rapporten ble laget for 30 minutter siden, klokken 11:50 UTC
Vind 10 kt fra Sør-sørvest
Temperatur -6°C
Luftfuktighet 53%
Trykk 999 hPa
Sikt 10 km eller mer
Få skyer i en høyde av 1800 ft
Spredte skyer i en høyde av 11000 ft

METAR: BGBW 241150Z 20010KT 9999 FEW018 SCT110 M06/M14 Q0999

Tid: 09:20 (12:20 UTC)

Varsel

Denne rapporten ble laget for 1 time og 10 minutter siden, klokken 11:10 UTC
Varsel gyldig fra 24. klokken 12 UTC til 24. klokken 21 UTC
Vind 10 kt fra Vest-sørvest
Sikt 10 km eller mer
Få skyer i en høyde av 2000 ft
Brutte skyer i en høyde av 10000 ft
Midlertidig
fra 24. klokken 12 UTC til 24. klokken 20 UTC
Brutte skyer i en høyde av 3000 ft

TAF: BGBW 241110Z 2412/2421 24010KT 9999 FEW020 BKN100 TEMPO 2412/2420 BKN030

Værobservasjoner og værvarsel for over 4000 flyplasser (METAR- og TAF-rapporter).

Tilgjengelige stasjoner er representert av de røde og gule prikkene på kartet.

Hold musepekeren over prikken for å se navnet på stasjonen.

Klikk så for å se værobservasjoner og -varsler.

For å forandre kartet kan du klikke på den grønne knappen med svart kryss for å zoome inn, på den grønne knappen med strek for å zoome ut, eller på de grønne pilene for å se tilstøtende kart.


METAR-TAF: